createdAt,value
2018-10-06T00:00:58.085Z,9.70
2018-10-06T00:03:26.391Z,9.80
2018-10-06T00:05:54.683Z,9.70
2018-10-06T00:08:24.029Z,9.70
2018-10-06T00:10:52.319Z,9.70
2018-10-06T00:13:20.962Z,9.70
2018-10-06T00:15:49.788Z,9.60
2018-10-06T00:18:18.097Z,9.60
2018-10-06T00:20:46.419Z,9.60
2018-10-06T00:23:15.426Z,9.60
2018-10-06T00:25:43.903Z,9.60
2018-10-06T00:28:12.541Z,9.60
2018-10-06T00:30:41.759Z,9.60
2018-10-06T00:33:10.087Z,9.60
2018-10-06T00:35:38.416Z,9.60
2018-10-06T00:38:07.122Z,9.60
2018-10-06T00:40:35.625Z,9.50
2018-10-06T00:43:03.925Z,9.50
2018-10-06T00:45:32.715Z,9.50
2018-10-06T00:48:01.056Z,9.40
2018-10-06T00:50:29.392Z,9.40
2018-10-06T00:52:58.137Z,9.40
2018-10-06T00:55:26.442Z,9.50
2018-10-06T00:57:54.774Z,9.50
2018-10-06T01:00:23.614Z,9.50
2018-10-06T01:02:51.940Z,9.50
2018-10-06T01:05:20.642Z,9.50
2018-10-06T01:07:49.668Z,9.50
2018-10-06T01:10:18.695Z,9.50
2018-10-06T01:12:47.002Z,9.60
2018-10-06T01:15:15.687Z,9.60
2018-10-06T01:17:44.010Z,9.60
2018-10-06T01:20:12.331Z,9.60
2018-10-06T01:22:41.383Z,9.60
2018-10-06T01:25:09.780Z,9.70
2018-10-06T01:27:38.437Z,9.60
2018-10-06T01:30:07.213Z,9.60
2018-10-06T01:32:35.718Z,9.60
2018-10-06T01:35:04.146Z,9.60
2018-10-06T01:37:32.767Z,9.60
2018-10-06T01:40:01.101Z,9.60
2018-10-06T01:42:29.469Z,9.60
2018-10-06T01:44:57.894Z,9.70
2018-10-06T01:47:26.265Z,9.70
2018-10-06T01:49:54.657Z,9.70
2018-10-06T01:52:23.515Z,9.70
2018-10-06T01:54:51.915Z,9.70
2018-10-06T01:57:20.245Z,9.70
2018-10-06T01:59:48.955Z,9.70
2018-10-06T02:02:17.490Z,9.70
2018-10-06T02:04:46.007Z,9.80
2018-10-06T02:07:15.065Z,9.80
2018-10-06T02:09:43.424Z,9.80
2018-10-06T02:12:11.977Z,9.80
2018-10-06T02:14:40.824Z,9.70
2018-10-06T02:17:09.618Z,9.80
2018-10-06T02:19:38.076Z,9.80
2018-10-06T02:22:06.790Z,9.80
2018-10-06T02:24:35.354Z,9.80
2018-10-06T02:27:03.990Z,9.90
2018-10-06T02:29:32.691Z,9.90
2018-10-06T02:32:01.175Z,9.90
2018-10-06T02:34:29.617Z,9.90
2018-10-06T02:36:58.540Z,9.90
2018-10-06T02:39:26.884Z,9.90
2018-10-06T02:41:55.319Z,10.00
2018-10-06T02:44:23.892Z,10.00
2018-10-06T02:46:52.252Z,10.00
2018-10-06T02:49:20.616Z,10.00
2018-10-06T02:51:49.491Z,10.00
2018-10-06T02:54:17.795Z,10.00
2018-10-06T02:56:46.115Z,10.00
2018-10-06T02:59:14.939Z,10.00
2018-10-06T03:01:43.337Z,10.10
2018-10-06T03:04:11.718Z,10.00
2018-10-06T03:06:40.694Z,10.00
2018-10-06T03:09:09.675Z,10.00
2018-10-06T03:11:38.051Z,10.00
2018-10-06T03:14:07.543Z,10.00
2018-10-06T03:16:36.023Z,10.10
2018-10-06T03:19:04.410Z,10.10
2018-10-06T03:21:33.282Z,10.10
2018-10-06T03:24:01.630Z,10.10
2018-10-06T03:26:29.985Z,10.10
2018-10-06T03:28:58.652Z,10.10
2018-10-06T03:31:26.987Z,10.10
2018-10-06T03:33:55.455Z,10.10
2018-10-06T03:36:24.109Z,10.10
2018-10-06T03:38:52.453Z,10.10
2018-10-06T03:41:20.796Z,10.10
2018-10-06T03:43:49.400Z,10.10
2018-10-06T03:46:17.707Z,10.10
2018-10-06T03:48:46.072Z,10.10
2018-10-06T03:51:14.861Z,10.10
2018-10-06T03:53:43.187Z,10.10
2018-10-06T03:56:11.760Z,10.10
2018-10-06T03:58:40.659Z,10.10
2018-10-06T04:01:08.988Z,10.10
2018-10-06T04:03:37.455Z,10.10
2018-10-06T04:06:06.365Z,10.10
2018-10-06T04:08:34.762Z,10.10
2018-10-06T04:11:03.318Z,10.10
2018-10-06T04:13:31.927Z,10.10
2018-10-06T04:16:01.087Z,10.10
2018-10-06T04:18:29.441Z,10.10
2018-10-06T04:20:58.147Z,10.10
2018-10-06T04:23:26.886Z,10.00
2018-10-06T04:25:55.214Z,10.00
2018-10-06T04:28:24.278Z,10.00
2018-10-06T04:30:52.765Z,10.00
2018-10-06T04:33:21.097Z,10.00
2018-10-06T04:35:50.208Z,10.00
2018-10-06T04:38:18.518Z,10.00
2018-10-06T04:40:46.852Z,9.90
2018-10-06T04:43:15.540Z,9.90
2018-10-06T04:45:43.861Z,9.90
2018-10-06T04:48:12.453Z,10.00
2018-10-06T04:50:40.928Z,10.00
2018-10-06T04:53:09.380Z,10.00
2018-10-06T04:55:37.945Z,10.00
2018-10-06T04:58:06.874Z,9.90
2018-10-06T05:00:35.201Z,10.00
2018-10-06T05:03:03.505Z,10.00
2018-10-06T05:05:32.193Z,10.00
2018-10-06T05:08:00.563Z,10.00
2018-10-06T05:10:29.117Z,10.00
2018-10-06T05:12:57.773Z,10.00
2018-10-06T05:15:26.375Z,10.00
2018-10-06T05:17:55.058Z,10.00
2018-10-06T05:20:24.131Z,10.00
2018-10-06T05:22:52.834Z,10.00
2018-10-06T05:25:21.160Z,10.00
2018-10-06T05:27:50.237Z,10.00
2018-10-06T05:30:18.847Z,10.00
2018-10-06T05:32:47.158Z,10.00
2018-10-06T05:35:16.163Z,10.10
2018-10-06T05:37:44.579Z,10.00
2018-10-06T05:40:12.979Z,10.00
2018-10-06T05:42:41.984Z,10.00
2018-10-06T05:45:10.356Z,10.10
2018-10-06T05:47:38.684Z,10.10
2018-10-06T05:50:07.374Z,10.10
2018-10-06T05:52:35.699Z,10.10
2018-10-06T05:55:04.066Z,10.10
2018-10-06T05:57:33.448Z,10.10
2018-10-06T06:00:01.788Z,10.20
2018-10-06T06:02:30.130Z,10.10
2018-10-06T06:04:58.784Z,10.10
2018-10-06T06:07:27.089Z,10.10
2018-10-06T06:09:55.723Z,10.10
2018-10-06T06:12:24.204Z,10.10
2018-10-06T06:14:52.816Z,10.10
2018-10-06T06:17:21.667Z,10.20
2018-10-06T06:19:50.787Z,10.20
2018-10-06T06:22:19.357Z,10.20
2018-10-06T06:24:47.697Z,10.30
2018-10-06T06:27:16.341Z,10.30
2018-10-06T06:29:44.686Z,10.30
2018-10-06T06:32:13.080Z,10.30
2018-10-06T06:34:41.959Z,10.30
2018-10-06T06:37:10.274Z,10.30
2018-10-06T06:39:38.594Z,10.30
2018-10-06T06:42:07.883Z,10.30
2018-10-06T06:44:36.272Z,10.40
2018-10-06T06:47:05.125Z,10.40
2018-10-06T06:49:34.266Z,10.40
2018-10-06T06:52:03.112Z,10.50
2018-10-06T06:54:31.454Z,10.50
2018-10-06T06:57:00.244Z,10.50
2018-10-06T06:59:28.606Z,10.50
2018-10-06T07:01:57.409Z,10.50
2018-10-06T07:04:26.096Z,10.50
2018-10-06T07:06:54.454Z,10.60
2018-10-06T07:09:23.248Z,10.60
2018-10-06T07:11:51.651Z,10.70
2018-10-06T07:14:20.188Z,10.80
2018-10-06T07:16:48.523Z,10.80
2018-10-06T07:19:17.157Z,10.90
2018-10-06T07:21:46.052Z,10.90
2018-10-06T07:24:14.623Z,10.90
2018-10-06T07:26:43.200Z,11.00
2018-10-06T07:29:12.049Z,11.10
2018-10-06T07:31:40.788Z,11.10
2018-10-06T07:34:09.472Z,11.20
2018-10-06T07:36:38.138Z,11.20
2018-10-06T07:39:07.349Z,11.20
2018-10-06T07:41:36.110Z,11.20
2018-10-06T07:44:04.517Z,11.20
2018-10-06T07:46:32.871Z,11.30
2018-10-06T07:49:01.698Z,11.30
2018-10-06T07:51:30.075Z,11.40
2018-10-06T07:53:58.470Z,11.40
2018-10-06T07:56:27.129Z,11.50
2018-10-06T07:58:55.454Z,11.60
2018-10-06T08:01:23.782Z,11.60
2018-10-06T08:03:52.962Z,11.70
2018-10-06T08:06:21.410Z,11.80
2018-10-06T08:08:49.755Z,11.80
2018-10-06T08:11:18.602Z,11.80
2018-10-06T08:13:46.907Z,11.90
2018-10-06T08:16:15.441Z,11.80
2018-10-06T08:18:44.234Z,11.70
2018-10-06T08:21:12.592Z,11.60
2018-10-06T08:23:41.498Z,11.60
2018-10-06T08:26:09.953Z,11.70
2018-10-06T08:28:38.322Z,11.80
2018-10-06T08:31:07.324Z,11.90
2018-10-06T08:33:36.012Z,11.90
2018-10-06T08:36:04.564Z,12.00
2018-10-06T08:38:33.329Z,12.00
2018-10-06T08:41:02.695Z,12.00
2018-10-06T08:43:31.110Z,12.20
2018-10-06T08:45:59.490Z,12.30
2018-10-06T08:48:28.450Z,12.50
2018-10-06T08:50:57.123Z,12.60
2018-10-06T08:53:25.463Z,13.00
2018-10-06T08:55:54.303Z,13.30
2018-10-06T08:58:23.427Z,13.70
2018-10-06T09:00:51.961Z,14.40
2018-10-06T09:03:20.854Z,15.00
2018-10-06T09:05:49.182Z,15.00
2018-10-06T09:08:17.489Z,15.00
2018-10-06T09:10:46.459Z,14.90
2018-10-06T09:13:14.944Z,14.30
2018-10-06T09:15:43.706Z,13.90
2018-10-06T09:18:12.758Z,13.40
2018-10-06T09:20:41.082Z,13.00
2018-10-06T09:23:09.668Z,12.90
2018-10-06T09:25:38.603Z,12.80
2018-10-06T09:28:07.272Z,12.50
2018-10-06T09:30:35.687Z,12.20
2018-10-06T09:33:04.091Z,12.20
2018-10-06T09:35:32.439Z,12.10
2018-10-06T09:38:01.146Z,12.10
2018-10-06T09:40:29.487Z,12.10
2018-10-06T09:42:57.867Z,12.20
2018-10-06T09:45:26.602Z,12.20
2018-10-06T09:47:55.663Z,12.30
2018-10-06T09:50:24.198Z,12.40
2018-10-06T09:52:52.940Z,12.50
2018-10-06T09:55:22.016Z,12.60
2018-10-06T09:57:50.599Z,12.90
2018-10-06T10:00:24.165Z,13.00
2018-10-06T10:02:57.760Z,13.10
2018-10-06T10:05:31.426Z,13.10
2018-10-06T10:08:00.165Z,13.00
2018-10-06T10:10:28.657Z,12.80
2018-10-06T10:12:57.139Z,12.70
2018-10-06T10:15:25.973Z,12.50
2018-10-06T10:17:54.357Z,12.40
2018-10-06T10:20:22.630Z,12.50
2018-10-06T10:22:51.193Z,12.60
2018-10-06T10:25:19.503Z,12.70
2018-10-06T10:27:48.159Z,12.80
2018-10-06T10:30:17.096Z,12.80
2018-10-06T10:32:45.406Z,12.90
2018-10-06T10:35:13.729Z,12.90
2018-10-06T10:37:42.545Z,12.90
2018-10-06T10:40:11.064Z,12.90
2018-10-06T10:42:39.444Z,12.90
2018-10-06T10:45:08.602Z,12.80
2018-10-06T10:47:36.932Z,12.70
2018-10-06T10:50:05.522Z,12.70
2018-10-06T10:52:34.352Z,12.60
2018-10-06T10:55:02.740Z,12.70
2018-10-06T10:57:31.137Z,12.80
2018-10-06T10:59:59.802Z,12.80
2018-10-06T11:02:28.131Z,12.90
2018-10-06T11:04:56.742Z,13.00
2018-10-06T11:07:25.126Z,12.90
2018-10-06T11:09:53.483Z,13.00
2018-10-06T11:12:21.944Z,13.10
2018-10-06T11:14:50.474Z,13.10
2018-10-06T11:17:18.878Z,13.00
2018-10-06T11:19:47.374Z,12.80
2018-10-06T11:22:15.780Z,12.80
2018-10-06T11:24:44.172Z,12.80
2018-10-06T11:27:12.511Z,12.90
2018-10-06T11:29:41.594Z,12.90
2018-10-06T11:32:10.210Z,12.80
2018-10-06T11:34:38.873Z,12.80
2018-10-06T11:37:07.340Z,13.00
2018-10-06T11:39:35.704Z,13.00
2018-10-06T11:42:04.294Z,12.90
2018-10-06T11:44:33.084Z,12.90
2018-10-06T11:47:01.579Z,12.90
2018-10-06T11:49:30.147Z,12.90
2018-10-06T11:51:59.079Z,12.90
2018-10-06T11:54:27.487Z,13.00
2018-10-06T11:56:56.082Z,13.00
2018-10-06T11:59:24.689Z,13.00
2018-10-06T12:01:52.987Z,13.00
2018-10-06T12:04:21.332Z,13.00
2018-10-06T12:06:50.285Z,13.00
2018-10-06T12:09:18.822Z,13.00
2018-10-06T12:11:47.187Z,13.00
2018-10-06T12:14:15.838Z,12.90
2018-10-06T12:16:44.372Z,12.80
2018-10-06T12:19:12.702Z,12.70
2018-10-06T12:21:41.287Z,12.50
2018-10-06T12:24:09.685Z,12.40
2018-10-06T12:26:37.987Z,12.40
2018-10-06T12:29:06.620Z,12.40
2018-10-06T12:31:35.334Z,12.40
2018-10-06T12:34:03.825Z,12.30
2018-10-06T12:36:32.675Z,12.30
2018-10-06T12:39:01.176Z,12.40
2018-10-06T12:41:29.647Z,12.40
2018-10-06T12:43:57.950Z,12.30
2018-10-06T12:46:26.444Z,12.30
2018-10-06T12:48:54.834Z,12.30
2018-10-06T12:51:23.428Z,12.40
2018-10-06T12:53:51.768Z,12.30
2018-10-06T12:56:20.128Z,12.30
2018-10-06T12:58:48.978Z,12.40
2018-10-06T13:01:17.706Z,12.40
2018-10-06T13:03:46.018Z,12.30
2018-10-06T13:06:15.143Z,12.30
2018-10-06T13:08:43.380Z,12.10
2018-10-06T13:11:11.732Z,12.00
2018-10-06T13:13:40.825Z,12.00
2018-10-06T13:16:09.494Z,11.90
2018-10-06T13:18:37.825Z,11.90
2018-10-06T13:21:06.961Z,11.80
2018-10-06T13:23:35.442Z,11.80
2018-10-06T13:26:03.793Z,11.80
2018-10-06T13:28:32.735Z,11.80
2018-10-06T13:31:07.365Z,11.90
2018-10-06T13:33:36.454Z,12.00
2018-10-06T13:36:04.974Z,11.90
2018-10-06T13:38:33.336Z,11.90
2018-10-06T13:41:02.132Z,11.90
2018-10-06T13:43:30.436Z,11.80
2018-10-06T13:45:58.769Z,11.90
2018-10-06T13:48:27.585Z,11.80
2018-10-06T13:50:56.147Z,11.80
2018-10-06T13:53:24.925Z,11.80
2018-10-06T13:55:53.299Z,11.80
2018-10-06T13:58:21.612Z,11.90
2018-10-06T14:00:50.642Z,11.80
2018-10-06T14:03:19.218Z,11.80
2018-10-06T14:05:47.742Z,11.80
2018-10-06T14:08:16.061Z,11.80
2018-10-06T14:10:44.369Z,11.80
2018-10-06T14:13:13.143Z,11.80
2018-10-06T14:15:41.519Z,11.80
2018-10-06T14:18:09.895Z,11.80
2018-10-06T14:20:38.903Z,11.70
2018-10-06T14:23:07.244Z,11.70
2018-10-06T14:25:35.991Z,11.70
2018-10-06T14:28:04.622Z,11.70
2018-10-06T14:30:32.922Z,11.70
2018-10-06T14:33:01.761Z,11.70
2018-10-06T14:35:30.546Z,11.60
2018-10-06T14:37:58.915Z,11.70
2018-10-06T14:40:28.164Z,11.70
2018-10-06T14:42:57.549Z,11.60
2018-10-06T14:45:25.861Z,11.60
2018-10-06T14:47:54.498Z,11.60
2018-10-06T14:50:23.132Z,11.50
2018-10-06T14:52:51.586Z,11.50
2018-10-06T14:55:20.138Z,11.50
2018-10-06T14:57:48.508Z,11.50
2018-10-06T15:00:16.942Z,11.50
2018-10-06T15:02:45.481Z,11.50
2018-10-06T15:05:13.837Z,11.40
2018-10-06T15:07:42.666Z,11.40
2018-10-06T15:10:11.763Z,11.30
2018-10-06T15:12:40.081Z,11.30
2018-10-06T15:15:08.436Z,11.30
2018-10-06T15:17:36.738Z,11.30
2018-10-06T15:20:05.203Z,11.20
2018-10-06T15:22:33.910Z,11.20
2018-10-06T15:25:02.415Z,11.10
2018-10-06T15:27:30.839Z,11.10
2018-10-06T15:29:59.136Z,11.10
2018-10-06T15:32:27.516Z,11.10
2018-10-06T15:34:55.867Z,11.00
2018-10-06T15:37:24.693Z,11.00
2018-10-06T15:39:53.046Z,11.00
2018-10-06T15:42:21.381Z,11.00
2018-10-06T15:44:49.767Z,10.90
2018-10-06T15:47:18.638Z,10.90
2018-10-06T15:49:47.007Z,10.90
2018-10-06T15:52:15.726Z,10.90
2018-10-06T15:54:44.202Z,10.80
2018-10-06T15:57:12.543Z,10.80
2018-10-06T15:59:40.862Z,10.70
2018-10-06T16:02:09.928Z,10.70
2018-10-06T16:04:38.236Z,10.70
2018-10-06T16:07:07.423Z,10.60
2018-10-06T16:09:36.208Z,10.60
2018-10-06T16:12:04.811Z,10.50
2018-10-06T16:14:33.141Z,10.40
2018-10-06T16:17:02.168Z,10.40
2018-10-06T16:19:30.841Z,10.30
2018-10-06T16:21:59.300Z,10.30
2018-10-06T16:24:28.284Z,10.20
2018-10-06T16:26:56.595Z,10.20
2018-10-06T16:29:24.926Z,10.10
2018-10-06T16:31:53.435Z,10.10
2018-10-06T16:34:22.026Z,10.10
2018-10-06T16:36:50.408Z,10.00
2018-10-06T16:39:19.201Z,10.00
2018-10-06T16:41:47.537Z,9.90
2018-10-06T16:44:15.863Z,9.90
2018-10-06T16:46:44.401Z,9.80
2018-10-06T16:49:12.724Z,9.70
2018-10-06T16:51:41.041Z,9.80
2018-10-06T16:54:09.633Z,9.70
2018-10-06T16:56:37.985Z,9.60
2018-10-06T16:59:06.370Z,9.60
2018-10-06T17:01:34.759Z,9.50
2018-10-06T17:04:03.045Z,9.50
2018-10-06T17:06:31.904Z,9.50
2018-10-06T17:09:00.605Z,9.50
2018-10-06T17:11:28.913Z,9.40
2018-10-06T17:13:57.409Z,9.40
2018-10-06T17:16:25.958Z,9.40
2018-10-06T17:18:54.387Z,9.40
2018-10-06T17:21:22.731Z,9.40
2018-10-06T17:23:51.392Z,9.40
2018-10-06T17:26:20.067Z,9.40
2018-10-06T17:28:48.547Z,9.30
2018-10-06T17:31:17.113Z,9.40
2018-10-06T17:33:45.611Z,9.30
2018-10-06T17:36:13.929Z,9.30
2018-10-06T17:38:42.770Z,9.30
2018-10-06T17:41:11.402Z,9.30
2018-10-06T17:43:39.692Z,9.30
2018-10-06T17:46:09.079Z,9.30
2018-10-06T17:48:37.427Z,9.30
2018-10-06T17:51:05.845Z,9.30
2018-10-06T17:53:34.718Z,9.40
2018-10-06T17:56:03.247Z,9.30
2018-10-06T17:58:31.629Z,9.30
2018-10-06T18:01:00.611Z,9.30
2018-10-06T18:03:28.926Z,9.30
2018-10-06T18:05:57.239Z,9.30
2018-10-06T18:08:26.213Z,9.30
2018-10-06T18:10:54.668Z,9.30
2018-10-06T18:13:22.977Z,9.30
2018-10-06T18:15:51.958Z,9.30
2018-10-06T18:18:20.262Z,9.30
2018-10-06T18:20:48.821Z,9.30
2018-10-06T18:23:17.810Z,9.30
2018-10-06T18:25:46.197Z,9.20
2018-10-06T18:28:14.499Z,9.20
2018-10-06T18:30:43.191Z,9.20
2018-10-06T18:33:11.580Z,9.10
2018-10-06T18:35:40.168Z,9.10
2018-10-06T18:38:09.232Z,9.10
2018-10-06T18:40:37.887Z,9.10
2018-10-06T18:43:07.044Z,9.00
2018-10-06T18:45:35.924Z,9.10
2018-10-06T18:48:04.232Z,9.20
2018-10-06T18:50:33.043Z,9.10
2018-10-06T18:53:01.969Z,9.00
2018-10-06T18:55:30.319Z,8.90
2018-10-06T18:57:58.967Z,8.90
2018-10-06T19:00:27.563Z,8.90
2018-10-06T19:02:56.032Z,8.90
2018-10-06T19:05:24.432Z,8.90
2018-10-06T19:07:52.983Z,8.80
2018-10-06T19:10:21.364Z,8.90
2018-10-06T19:12:49.700Z,8.90
2018-10-06T19:15:18.340Z,8.90
2018-10-06T19:17:46.863Z,8.80
2018-10-06T19:20:15.176Z,8.90
2018-10-06T19:22:43.785Z,8.80
2018-10-06T19:25:12.155Z,8.80
2018-10-06T19:27:40.710Z,8.80
2018-10-06T19:30:09.438Z,8.80
2018-10-06T19:32:37.791Z,8.70
2018-10-06T19:35:06.136Z,8.80
2018-10-06T19:37:34.671Z,8.80
2018-10-06T19:40:03.002Z,8.80
2018-10-06T19:42:31.377Z,8.80
2018-10-06T19:45:00.255Z,8.90
2018-10-06T19:47:28.549Z,8.90
2018-10-06T19:49:56.823Z,9.00
2018-10-06T19:52:25.224Z,9.00
2018-10-06T19:54:53.799Z,9.00
2018-10-06T19:57:22.437Z,9.10
2018-10-06T19:59:51.316Z,9.00
2018-10-06T20:02:19.653Z,9.00
2018-10-06T20:04:48.052Z,9.00
2018-10-06T20:07:16.453Z,8.90
2018-10-06T20:09:44.796Z,9.00
2018-10-06T20:12:13.423Z,8.90
2018-10-06T20:14:41.957Z,8.90
2018-10-06T20:17:10.435Z,8.90
2018-10-06T20:19:38.949Z,8.90
2018-10-06T20:22:09.790Z,9.00
2018-10-06T20:24:38.195Z,9.00
2018-10-06T20:27:06.692Z,9.00
2018-10-06T20:29:41.952Z,8.90
2018-10-06T20:32:10.293Z,8.90
2018-10-06T20:34:38.827Z,8.90
2018-10-06T20:37:07.939Z,8.90
2018-10-06T20:39:36.256Z,8.90
2018-10-06T20:42:04.590Z,8.90
2018-10-06T20:44:33.503Z,8.90
2018-10-06T20:47:02.314Z,8.90
2018-10-06T20:49:30.620Z,8.90
2018-10-06T20:51:59.418Z,8.90
2018-10-06T20:54:27.733Z,8.90
2018-10-06T20:56:56.055Z,8.80
2018-10-06T20:59:25.000Z,8.80
2018-10-06T21:01:53.453Z,8.80
2018-10-06T21:04:22.021Z,8.80
2018-10-06T21:06:50.910Z,8.80
2018-10-06T21:09:19.565Z,8.80
2018-10-06T21:11:47.877Z,8.80
2018-10-06T21:14:16.713Z,8.80
2018-10-06T21:16:45.294Z,8.80
2018-10-06T21:19:13.870Z,8.80
2018-10-06T21:21:42.168Z,8.80
2018-10-06T21:24:10.575Z,8.80
2018-10-06T21:26:38.897Z,8.90
2018-10-06T21:29:07.449Z,8.90
2018-10-06T21:31:35.748Z,8.90
2018-10-06T21:34:04.255Z,8.90
2018-10-06T21:36:33.039Z,9.00
2018-10-06T21:39:01.699Z,8.90
2018-10-06T21:41:30.403Z,8.90
2018-10-06T21:43:59.100Z,8.90
2018-10-06T21:46:27.456Z,9.00
2018-10-06T21:48:56.037Z,9.00
2018-10-06T21:51:24.366Z,8.90
2018-10-06T21:53:52.832Z,9.00
2018-10-06T21:56:21.179Z,9.00
2018-10-06T21:58:49.947Z,9.00
2018-10-06T22:01:18.429Z,9.00
2018-10-06T22:03:46.766Z,9.00
2018-10-06T22:06:15.367Z,9.00
2018-10-06T22:08:44.137Z,9.00
2018-10-06T22:11:12.728Z,9.00
2018-10-06T22:13:41.294Z,9.00
2018-10-06T22:16:09.722Z,9.00
2018-10-06T22:18:38.043Z,9.00
2018-10-06T22:21:07.201Z,9.00
2018-10-06T22:23:35.486Z,9.00
2018-10-06T22:26:03.871Z,9.00
2018-10-06T22:28:32.590Z,9.00
2018-10-06T22:31:00.904Z,9.00
2018-10-06T22:33:29.191Z,8.90
2018-10-06T22:35:58.074Z,8.90
2018-10-06T22:38:26.440Z,8.90
2018-10-06T22:40:54.797Z,8.90
2018-10-06T22:43:23.348Z,8.90
2018-10-06T22:45:51.892Z,8.90
2018-10-06T22:48:20.200Z,8.90
2018-10-06T22:50:49.317Z,8.90
2018-10-06T22:53:17.827Z,8.90
2018-10-06T22:55:46.270Z,8.90
2018-10-06T22:58:15.149Z,8.90
2018-10-06T23:00:43.675Z,8.80
2018-10-06T23:03:12.086Z,8.80
2018-10-06T23:05:40.576Z,8.70
2018-10-06T23:08:08.956Z,8.70
2018-10-06T23:10:37.324Z,8.70
2018-10-06T23:13:05.946Z,8.70
2018-10-06T23:15:34.295Z,8.70
2018-10-06T23:18:03.013Z,8.70
2018-10-06T23:20:31.963Z,8.70
2018-10-06T23:23:00.258Z,8.60
2018-10-06T23:25:28.997Z,8.60
2018-10-06T23:27:57.334Z,8.60
2018-10-06T23:30:25.666Z,8.60
2018-10-06T23:32:54.384Z,8.60
2018-10-06T23:35:22.828Z,8.60
2018-10-06T23:37:51.171Z,8.60
2018-10-06T23:40:19.478Z,8.60
2018-10-06T23:42:47.796Z,8.60
2018-10-06T23:45:16.457Z,8.50
2018-10-06T23:47:45.022Z,8.60
2018-10-06T23:50:13.678Z,8.50
2018-10-06T23:52:42.748Z,8.50
2018-10-06T23:55:11.229Z,8.50
2018-10-06T23:57:40.055Z,8.50
